Time;durP1;ratioP1;P1;durP2;ratioP2;P2;SDS_P1;SDS_P2;PMS_P1;PMS_P2;Temp;Humidity;BMP_temperature;BMP_pressure;BME280_temperature;BME280_humidity;BME280_pressure;Samples;Min_cycle;Max_cycle;Signal;HPM_P1;HPM_P2
2023/07/23 00:02:02;;;;;;;11.43;6.32;;;;;;;;;;4971394;28;20031;-73
2023/07/23 00:04:28;;;;;;;11.23;6.13;;;;;;;;;;4967121;28;20042;-74
2023/07/23 00:06:54;;;;;;;15.23;6.97;;;;;;;;;;4974164;28;20039;-74
2023/07/23 00:09:20;;;;;;;13.35;6.00;;;;;;;;;;4966629;28;20097;-74
2023/07/23 00:11:46;;;;;;;10.63;6.70;;;;;;;;;;4969151;28;20082;-74
2023/07/23 00:14:12;;;;;;;11.82;5.88;;;;;;;;;;4970331;28;20066;-75
2023/07/23 00:16:38;;;;;;;12.52;6.32;;;;;;;;;;4970670;28;20651;-73
2023/07/23 00:19:05;;;;;;;14.18;6.18;;;;;;;;;;4970660;28;20353;-73
2023/07/23 00:21:31;;;;;;;15.27;6.95;;;;;;;;;;4969825;28;20030;-73
2023/07/23 00:23:57;;;;;;;10.88;6.18;;;;;;;;;;4968352;28;20037;-73
2023/07/23 00:26:24;;;;;;;11.57;6.78;;;;;;;;;;4969246;28;20437;-74
2023/07/23 00:28:50;;;;;;;13.30;6.13;;;;;;;;;;4954131;28;20035;-73
2023/07/23 00:31:16;;;;;;;11.70;6.47;;;;;;;;;;4969947;28;20067;-74
2023/07/23 00:33:42;;;;;;;14.48;7.03;;;;;;;;;;4971993;28;20043;-73
2023/07/23 00:36:09;;;;;;;12.65;6.80;;;;;;;;;;4969133;28;20117;-74
2023/07/23 00:38:35;;;;;;;11.35;7.07;;;;;;;;;;4971007;28;20035;-73
2023/07/23 00:41:01;;;;;;;10.35;6.63;;;;;;;;;;4971556;28;20105;-73
2023/07/23 00:43:27;;;;;;;12.20;6.93;;;;;;;;;;4973935;28;20038;-74
2023/07/23 00:45:53;;;;;;;15.70;7.38;;;;;;;;;;4971462;28;20374;-73
2023/07/23 00:48:19;;;;;;;13.70;6.45;;;;;;;;;;4969359;28;20027;-73
2023/07/23 00:50:46;;;;;;;16.38;7.20;;;;;;;;;;4969971;28;20481;-73
2023/07/23 00:53:12;;;;;;;15.98;7.45;;;;;;;;;;4976365;28;20093;-73
2023/07/23 00:55:38;;;;;;;12.02;6.75;;;;;;;;;;4975099;28;20043;-73
2023/07/23 00:58:04;;;;;;;15.25;7.60;;;;;;;;;;4971936;28;20042;-73
2023/07/23 01:00:30;;;;;;;12.45;7.15;;;;;;;;;;4969009;28;20039;-74
2023/07/23 01:02:57;;;;;;;17.45;7.25;;;;;;;;;;4968940;28;20114;-74
2023/07/23 01:05:24;;;;;;;14.13;7.57;;;;;;;;;;4971082;28;20510;-73
2023/07/23 01:07:50;;;;;;;15.57;7.68;;;;;;;;;;4965375;28;20041;-74
2023/07/23 01:10:17;;;;;;;17.52;7.60;;;;;;;;;;4976926;28;20390;-75
2023/07/23 01:12:44;;;;;;;15.82;8.52;;;;;;;;;;4968286;28;20038;-73
2023/07/23 01:15:10;;;;;;;15.70;8.00;;;;;;;;;;4971123;28;20583;-74
2023/07/23 01:17:37;;;;;;;18.88;7.70;;;;;;;;;;4968684;28;20448;-74
2023/07/23 01:20:07;;;;;;;10.82;7.18;;;;;;;;;;4970385;28;20033;-73
2023/07/23 01:22:34;;;;;;;12.75;7.40;;;;;;;;;;4970630;28;20038;-73
2023/07/23 01:25:00;;;;;;;13.40;7.28;;;;;;;;;;4963990;28;20507;-74
2023/07/23 01:27:26;;;;;;;11.68;6.65;;;;;;;;;;4962431;28;20083;-73
2023/07/23 01:29:52;;;;;;;13.25;7.35;;;;;;;;;;4982703;28;20361;-73
2023/07/23 01:32:18;;;;;;;9.95;6.88;;;;;;;;;;4969706;28;20035;-73
2023/07/23 01:34:44;;;;;;;9.63;6.95;;;;;;;;;;4987286;28;20046;-73
2023/07/23 01:37:11;;;;;;;11.35;6.70;;;;;;;;;;4969264;28;20038;-73
2023/07/23 01:39:37;;;;;;;15.10;7.18;;;;;;;;;;4975112;28;20093;-73
2023/07/23 01:42:03;;;;;;;10.98;7.00;;;;;;;;;;4968621;28;20031;-73
2023/07/23 01:44:29;;;;;;;11.95;6.72;;;;;;;;;;4967658;28;20427;-73
2023/07/23 01:46:55;;;;;;;12.50;7.13;;;;;;;;;;4969825;28;20054;-73
2023/07/23 01:49:21;;;;;;;13.02;6.72;;;;;;;;;;4968589;28;20497;-73
2023/07/23 01:51:48;;;;;;;15.18;7.65;;;;;;;;;;4966375;28;20063;-73
2023/07/23 01:54:14;;;;;;;11.70;7.72;;;;;;;;;;4974867;28;20035;-73
2023/07/23 01:56:40;;;;;;;15.73;7.53;;;;;;;;;;4969720;28;20034;-73
2023/07/23 01:59:07;;;;;;;15.25;8.02;;;;;;;;;;4967037;28;20038;-73
2023/07/23 02:01:33;;;;;;;15.15;7.63;;;;;;;;;;4968866;28;20027;-74
2023/07/23 02:03:59;;;;;;;13.88;7.10;;;;;;;;;;4968593;28;20445;-74
2023/07/23 02:06:25;;;;;;;14.38;7.05;;;;;;;;;;4972568;28;20035;-75
2023/07/23 02:08:51;;;;;;;13.43;6.18;;;;;;;;;;4964858;28;20042;-74
2023/07/23 02:11:17;;;;;;;11.50;7.00;;;;;;;;;;4969325;28;20113;-74
2023/07/23 02:13:44;;;;;;;10.40;6.93;;;;;;;;;;4969791;28;20026;-73
2023/07/23 02:16:20;;;;;;;8.70;6.28;;;;;;;;;;4967957;28;20229;-74
2023/07/23 02:18:46;;;;;;;13.10;6.45;;;;;;;;;;4966584;28;20050;-74
2023/07/23 02:21:12;;;;;;;10.93;6.43;;;;;;;;;;4968267;28;20035;-73
2023/07/23 02:23:38;;;;;;;12.85;6.60;;;;;;;;;;4968637;28;20034;-73
2023/07/23 02:26:04;;;;;;;11.18;6.50;;;;;;;;;;4967421;28;20117;-73
2023/07/23 02:28:30;;;;;;;11.93;6.85;;;;;;;;;;4966372;28;20042;-73
2023/07/23 02:31:00;;;;;;;8.60;5.72;;;;;;;;;;4966791;28;20030;-74
2023/07/23 02:33:27;;;;;;;12.45;6.85;;;;;;;;;;4968508;28;20042;-73
2023/07/23 02:35:53;;;;;;;9.02;5.50;;;;;;;;;;4970333;28;20452;-73
2023/07/23 02:38:19;;;;;;;13.82;6.15;;;;;;;;;;4966364;28;20397;-73
2023/07/23 02:40:45;;;;;;;13.20;6.07;;;;;;;;;;4968644;28;20031;-73
2023/07/23 02:43:12;;;;;;;10.32;6.50;;;;;;;;;;4966809;28;20041;-74
2023/07/23 02:45:39;;;;;;;13.18;6.60;;;;;;;;;;4966884;28;20046;-74
2023/07/23 02:48:05;;;;;;;13.48;6.90;;;;;;;;;;4964635;28;20121;-74
2023/07/23 02:50:31;;;;;;;11.50;6.32;;;;;;;;;;4968087;28;20061;-73
2023/07/23 02:52:57;;;;;;;11.75;6.82;;;;;;;;;;4965477;28;20030;-73
2023/07/23 02:55:25;;;;;;;11.73;6.80;;;;;;;;;;4970802;28;20043;-74
2023/07/23 02:57:51;;;;;;;13.88;7.38;;;;;;;;;;4966155;28;20293;-73
2023/07/23 03:00:20;;;;;;;10.98;6.95;;;;;;;;;;4970543;28;20039;-74
2023/07/23 03:02:50;;;;;;;9.98;6.40;;;;;;;;;;4984091;28;20035;-73
2023/07/23 03:05:16;;;;;;;12.55;6.47;;;;;;;;;;4966253;28;20105;-74
2023/07/23 03:07:42;;;;;;;12.38;6.70;;;;;;;;;;4966377;28;20721;-74
2023/07/23 03:10:08;;;;;;;9.45;6.22;;;;;;;;;;4965283;28;20782;-74
2023/07/23 03:12:35;;;;;;;10.90;6.95;;;;;;;;;;4967889;28;20535;-74
2023/07/23 03:15:01;;;;;;;9.00;5.95;;;;;;;;;;4969088;28;20039;-73
2023/07/23 03:17:27;;;;;;;10.70;6.60;;;;;;;;;;4964764;28;20503;-73
2023/07/23 03:19:53;;;;;;;16.20;7.75;;;;;;;;;;4971750;28;20066;-73
2023/07/23 03:22:19;;;;;;;14.38;7.53;;;;;;;;;;4963006;28;20031;-73
2023/07/23 03:24:46;;;;;;;11.80;6.97;;;;;;;;;;4968265;28;20412;-73
2023/07/23 03:27:12;;;;;;;13.50;7.03;;;;;;;;;;4965320;28;20027;-74
2023/07/23 03:29:38;;;;;;;11.07;6.65;;;;;;;;;;4967393;28;20035;-74
2023/07/23 03:32:04;;;;;;;12.77;6.82;;;;;;;;;;4969770;28;20053;-74
2023/07/23 03:34:31;;;;;;;11.57;7.10;;;;;;;;;;4969287;28;20702;-74
2023/07/23 03:36:57;;;;;;;9.90;6.53;;;;;;;;;;4966758;28;20535;-74
2023/07/23 03:39:23;;;;;;;12.82;6.60;;;;;;;;;;4969099;28;20026;-73
2023/07/23 03:41:49;;;;;;;13.43;7.10;;;;;;;;;;4968828;28;20034;-74
2023/07/23 03:44:15;;;;;;;12.73;7.40;;;;;;;;;;4975998;28;20030;-73
2023/07/23 03:46:43;;;;;;;15.23;6.90;;;;;;;;;;4969537;28;20065;-73
2023/07/23 03:49:09;;;;;;;12.43;7.03;;;;;;;;;;4971597;28;20036;-74
2023/07/23 03:51:35;;;;;;;12.73;7.03;;;;;;;;;;4972431;28;20038;-72
2023/07/23 03:54:01;;;;;;;12.80;6.72;;;;;;;;;;4972168;28;20714;-74
2023/07/23 03:56:27;;;;;;;15.60;7.75;;;;;;;;;;4972227;28;20042;-73
2023/07/23 03:58:53;;;;;;;10.57;6.63;;;;;;;;;;4964431;28;20131;-73
2023/07/23 04:01:19;;;;;;;12.27;6.95;;;;;;;;;;4971352;28;20046;-74
2023/07/23 04:03:45;;;;;;;11.48;7.10;;;;;;;;;;4972807;28;20026;-73
2023/07/23 04:06:11;;;;;;;10.63;6.93;;;;;;;;;;4972845;28;20432;-74
2023/07/23 04:08:38;;;;;;;11.70;7.40;;;;;;;;;;4969662;28;20106;-73
2023/07/23 04:11:04;;;;;;;12.68;7.75;;;;;;;;;;4965275;28;20047;-73
2023/07/23 04:13:30;;;;;;;12.05;8.25;;;;;;;;;;4968374;28;20026;-74
2023/07/23 04:15:56;;;;;;;13.02;7.78;;;;;;;;;;4969785;28;20043;-74
2023/07/23 04:18:22;;;;;;;12.52;8.15;;;;;;;;;;4970400;28;20085;-74
2023/07/23 04:20:48;;;;;;;17.42;7.97;;;;;;;;;;4971692;28;20023;-74
2023/07/23 04:23:14;;;;;;;15.25;7.25;;;;;;;;;;4971696;28;20038;-73
2023/07/23 04:25:40;;;;;;;11.07;6.90;;;;;;;;;;4969662;28;20043;-74
2023/07/23 04:28:06;;;;;;;12.00;8.40;;;;;;;;;;4970499;28;20065;-74
2023/07/23 04:30:35;;;;;;;11.85;7.80;;;;;;;;;;4972816;28;20039;-73
2023/07/23 04:33:01;;;;;;;16.08;7.80;;;;;;;;;;4966564;28;20057;-73
2023/07/23 04:35:28;;;;;;;11.13;7.80;;;;;;;;;;4969992;28;20121;-74
2023/07/23 04:37:54;;;;;;;13.15;7.47;;;;;;;;;;4977257;28;20041;-74
2023/07/23 04:40:21;;;;;;;14.38;7.65;;;;;;;;;;4971508;28;20432;-74
2023/07/23 04:42:47;;;;;;;15.80;8.40;;;;;;;;;;4968324;28;20039;-73
2023/07/23 04:45:13;;;;;;;11.73;8.20;;;;;;;;;;4969775;28;20357;-74
2023/07/23 04:47:40;;;;;;;14.45;8.75;;;;;;;;;;4971786;28;20035;-73
2023/07/23 04:50:06;;;;;;;10.63;7.75;;;;;;;;;;4968524;28;20069;-73
2023/07/23 04:52:32;;;;;;;15.68;8.35;;;;;;;;;;4962013;28;21638;-74
2023/07/23 04:54:59;;;;;;;12.18;8.25;;;;;;;;;;4964305;28;20126;-73
2023/07/23 04:57:25;;;;;;;15.23;8.25;;;;;;;;;;4963836;28;20035;-73
2023/07/23 04:59:51;;;;;;;10.82;7.40;;;;;;;;;;4968323;28;20043;-73
2023/07/23 05:02:17;;;;;;;12.52;8.15;;;;;;;;;;4963506;28;20047;-73
2023/07/23 05:04:43;;;;;;;18.95;8.15;;;;;;;;;;4974986;28;20125;-73
2023/07/23 05:07:09;;;;;;;34.63;23.50;;;;;;;;;;4981164;28;20377;-74
2023/07/23 05:09:35;;;;;;;13.18;8.40;;;;;;;;;;4970120;28;20058;-74
2023/07/23 05:12:01;;;;;;;13.68;7.70;;;;;;;;;;4971622;28;20027;-74
2023/07/23 05:14:27;;;;;;;16.95;9.15;;;;;;;;;;4971855;28;20429;-73
2023/07/23 05:16:54;;;;;;;15.38;8.52;;;;;;;;;;4971993;28;20039;-74
2023/07/23 05:19:20;;;;;;;14.15;7.90;;;;;;;;;;4971623;28;20026;-74
2023/07/23 05:21:46;;;;;;;14.50;8.10;;;;;;;;;;4971159;28;20390;-74
2023/07/23 05:24:12;;;;;;;13.75;8.23;;;;;;;;;;4969541;28;20043;-73
2023/07/23 05:26:38;;;;;;;19.13;7.85;;;;;;;;;;4970648;28;20035;-73
2023/07/23 05:29:04;;;;;;;14.98;8.10;;;;;;;;;;4965177;28;20497;-74
2023/07/23 05:31:30;;;;;;;13.90;8.80;;;;;;;;;;4966655;28;20030;-74
2023/07/23 05:33:56;;;;;;;12.05;8.65;;;;;;;;;;4968458;28;20023;-74
2023/07/23 05:36:22;;;;;;;12.48;8.60;;;;;;;;;;4971048;28;20118;-74
2023/07/23 05:38:48;;;;;;;17.15;8.55;;;;;;;;;;4987190;28;20035;-74
2023/07/23 05:41:14;;;;;;;12.00;8.18;;;;;;;;;;4965480;28;20057;-74
2023/07/23 05:43:40;;;;;;;14.82;8.20;;;;;;;;;;4968525;28;20027;-74
2023/07/23 05:46:06;;;;;;;16.85;8.77;;;;;;;;;;4961716;28;20105;-74
2023/07/23 05:48:32;;;;;;;14.05;8.48;;;;;;;;;;4961595;28;20047;-74
2023/07/23 05:50:59;;;;;;;13.85;8.07;;;;;;;;;;4961240;28;20097;-75
2023/07/23 05:53:25;;;;;;;15.73;8.57;;;;;;;;;;4966748;28;20030;-74
2023/07/23 05:55:51;;;;;;;11.60;7.20;;;;;;;;;;4967530;28;20055;-74
2023/07/23 05:58:17;;;;;;;18.30;8.38;;;;;;;;;;4970900;28;20341;-75
2023/07/23 06:00:43;;;;;;;13.18;8.35;;;;;;;;;;4961298;28;20064;-74
2023/07/23 06:03:09;;;;;;;13.32;8.43;;;;;;;;;;4969937;28;20039;-76
2023/07/23 06:05:35;;;;;;;13.35;7.63;;;;;;;;;;4970837;28;20031;-76
2023/07/23 06:08:01;;;;;;;13.50;8.75;;;;;;;;;;4969784;28;20031;-77
2023/07/23 06:10:28;;;;;;;15.93;8.80;;;;;;;;;;4968002;28;20050;-77
2023/07/23 06:12:54;;;;;;;10.82;7.57;;;;;;;;;;4962814;28;20085;-76
2023/07/23 06:15:20;;;;;;;13.48;8.77;;;;;;;;;;4962550;28;20050;-77
2023/07/23 06:17:46;;;;;;;14.27;8.45;;;;;;;;;;4964365;28;20026;-76
2023/07/23 06:20:12;;;;;;;10.75;7.75;;;;;;;;;;4980344;28;20054;-77
2023/07/23 06:22:38;;;;;;;12.93;8.23;;;;;;;;;;4969283;28;20030;-75
2023/07/23 06:25:05;;;;;;;9.52;7.40;;;;;;;;;;4966875;28;20113;-75
2023/07/23 06:27:31;;;;;;;13.02;7.40;;;;;;;;;;4965966;28;20053;-75
2023/07/23 06:29:57;;;;;;;11.88;7.20;;;;;;;;;;4970202;28;20039;-74
2023/07/23 06:32:23;;;;;;;11.93;8.18;;;;;;;;;;4969879;28;20031;-75
2023/07/23 06:34:49;;;;;;;11.60;8.35;;;;;;;;;;4972160;28;20046;-73
2023/07/23 06:37:15;;;;;;;13.32;8.77;;;;;;;;;;4970651;28;20034;-75
2023/07/23 06:39:41;;;;;;;12.85;7.97;;;;;;;;;;4971718;28;20034;-75
2023/07/23 06:42:07;;;;;;;15.15;8.52;;;;;;;;;;4980895;28;20409;-72
2023/07/23 06:44:33;;;;;;;12.20;8.68;;;;;;;;;;4965730;28;20034;-73
2023/07/23 06:46:59;;;;;;;13.48;8.77;;;;;;;;;;4967633;28;20025;-73
2023/07/23 06:49:28;;;;;;;16.20;8.88;;;;;;;;;;4975349;28;20062;-73
2023/07/23 06:51:55;;;;;;;16.55;9.43;;;;;;;;;;4970764;28;20026;-74
2023/07/23 06:54:21;;;;;;;14.43;8.40;;;;;;;;;;4968677;28;20046;-75
2023/07/23 06:56:47;;;;;;;15.73;8.48;;;;;;;;;;4970708;28;20026;-74
2023/07/23 06:59:13;;;;;;;16.27;9.15;;;;;;;;;;4966101;28;20053;-74
2023/07/23 07:01:39;;;;;;;15.13;9.23;;;;;;;;;;4961360;28;20038;-74
2023/07/23 07:04:06;;;;;;;16.77;9.05;;;;;;;;;;4966150;28;20077;-75
2023/07/23 07:06:32;;;;;;;16.50;9.43;;;;;;;;;;4972868;28;20196;-73
2023/07/23 07:08:58;;;;;;;21.30;10.20;;;;;;;;;;4972471;28;20037;-74
2023/07/23 07:11:24;;;;;;;16.00;9.15;;;;;;;;;;4976757;28;20031;-74
2023/07/23 07:13:51;;;;;;;15.13;8.93;;;;;;;;;;4975859;28;20126;-75
2023/07/23 07:16:17;;;;;;;16.23;9.15;;;;;;;;;;4975854;28;20038;-74
2023/07/23 07:19:11;;;;;;;19.00;9.27;;;;;;;;;;5099792;27;20771;-74
2023/07/23 07:21:37;;;;;;;19.58;10.27;;;;;;;;;;5107601;28;20031;-74
2023/07/23 07:24:03;;;;;;;14.98;8.73;;;;;;;;;;5109664;27;20035;-75
2023/07/23 07:26:29;;;;;;;18.33;9.68;;;;;;;;;;5111331;28;20036;-76
2023/07/23 07:28:55;;;;;;;17.15;10.02;;;;;;;;;;5098726;28;20032;-73
2023/07/23 07:31:21;;;;;;;17.27;9.35;;;;;;;;;;5108008;28;20090;-73
2023/07/23 07:33:48;;;;;;;17.10;8.18;;;;;;;;;;5108023;28;20028;-73
2023/07/23 07:36:14;;;;;;;20.25;10.13;;;;;;;;;;5108087;28;20031;-74
2023/07/23 07:38:41;;;;;;;15.35;9.25;;;;;;;;;;5108456;27;20396;-73
2023/07/23 07:41:07;;;;;;;18.95;9.43;;;;;;;;;;5105555;27;20043;-73
2023/07/23 07:43:33;;;;;;;18.95;10.18;;;;;;;;;;5111008;28;20073;-73
2023/07/23 07:46:00;;;;;;;20.05;10.18;;;;;;;;;;5108283;28;20031;-76
2023/07/23 07:48:27;;;;;;;16.52;10.68;;;;;;;;;;5105066;27;20062;-74
2023/07/23 07:51:09;;;;;;;16.70;9.30;;;;;;;;;;5105089;28;20047;-73
2023/07/23 07:53:36;;;;;;;17.38;9.20;;;;;;;;;;5113518;28;20027;-73
2023/07/23 07:56:03;;;;;;;18.63;9.57;;;;;;;;;;5114622;28;20572;-74
2023/07/23 07:58:29;;;;;;;21.30;10.68;;;;;;;;;;5104211;28;20048;-74
2023/07/23 08:00:56;;;;;;;17.63;9.52;;;;;;;;;;5104481;27;20084;-73
2023/07/23 08:03:23;;;;;;;15.18;9.23;;;;;;;;;;5107730;27;20032;-72
2023/07/23 08:05:50;;;;;;;16.13;9.73;;;;;;;;;;5108784;28;20370;-73
2023/07/23 08:08:17;;;;;;;14.73;9.35;;;;;;;;;;5100425;28;20123;-75
2023/07/23 08:10:44;;;;;;;13.80;9.85;;;;;;;;;;5106886;28;20045;-72
2023/07/23 08:13:11;;;;;;;15.20;9.93;;;;;;;;;;5114143;27;20024;-75
2023/07/23 08:15:37;;;;;;;15.20;10.20;;;;;;;;;;5104923;28;20513;-72
2023/07/23 08:18:03;;;;;;;20.38;9.85;;;;;;;;;;5104581;28;21540;-72
2023/07/23 08:20:32;;;;;;;15.70;9.98;;;;;;;;;;5105590;28;20203;-73
2023/07/23 08:22:58;;;;;;;11.70;9.20;;;;;;;;;;5105308;28;20042;-72
2023/07/23 08:25:25;;;;;;;13.70;9.30;;;;;;;;;;5106463;28;20119;-73
2023/07/23 08:27:52;;;;;;;12.45;9.63;;;;;;;;;;5109657;28;20035;-72
2023/07/23 08:30:20;;;;;;;14.88;9.32;;;;;;;;;;5093556;28;20045;-74
2023/07/23 08:32:48;;;;;;;14.95;9.68;;;;;;;;;;5094165;28;20590;-72
2023/07/23 08:35:14;;;;;;;16.90;11.27;;;;;;;;;;5096557;28;20096;-72
2023/07/23 08:37:40;;;;;;;15.35;9.40;;;;;;;;;;5092854;28;20604;-75
2023/07/23 08:40:07;;;;;;;12.15;9.48;;;;;;;;;;5089963;28;20027;-72
2023/07/23 08:42:47;;;;;;;12.68;9.57;;;;;;;;;;5091037;28;20036;-72
2023/07/23 08:45:23;;;;;;;14.77;9.65;;;;;;;;;;5089971;28;20093;-73
2023/07/23 08:47:59;;;;;;;14.77;9.80;;;;;;;;;;5088344;28;20044;-75
2023/07/23 08:50:25;;;;;;;12.38;9.38;;;;;;;;;;5092332;28;20223;-74
2023/07/23 08:52:52;;;;;;;12.57;10.07;;;;;;;;;;5097287;28;20023;-72
2023/07/23 08:55:18;;;;;;;14.65;10.35;;;;;;;;;;5089001;28;20035;-73
2023/07/23 08:57:44;;;;;;;14.02;10.30;;;;;;;;;;5091552;28;20508;-72
2023/07/23 09:00:10;;;;;;;13.13;10.25;;;;;;;;;;5093899;28;20090;-75
2023/07/23 09:02:37;;;;;;;12.90;10.73;;;;;;;;;;5078125;28;20028;-73
2023/07/23 09:05:03;;;;;;;16.92;9.85;;;;;;;;;;5091815;27;20131;-74
2023/07/23 09:07:29;;;;;;;13.93;9.70;;;;;;;;;;5095735;28;20042;-73
2023/07/23 09:09:55;;;;;;;12.52;10.00;;;;;;;;;;5098497;28;20032;-73
2023/07/23 09:12:21;;;;;;;14.93;10.98;;;;;;;;;;5092883;28;20028;-73
2023/07/23 09:14:47;;;;;;;13.05;9.93;;;;;;;;;;5096047;28;20027;-73
2023/07/23 09:17:20;;;;;;;12.63;10.27;;;;;;;;;;5092865;28;20095;-73
2023/07/23 09:19:47;;;;;;;13.88;10.18;;;;;;;;;;5096649;28;20029;-73
2023/07/23 09:22:17;;;;;;;14.85;10.02;;;;;;;;;;5084063;28;20040;-72
2023/07/23 09:24:43;;;;;;;18.35;9.50;;;;;;;;;;5088531;28;20034;-72
2023/07/23 09:27:12;;;;;;;11.02;9.90;;;;;;;;;;5083493;28;20032;-74
2023/07/23 09:29:44;;;;;;;17.30;9.75;;;;;;;;;;5083868;28;20139;-74
2023/07/23 09:32:23;;;;;;;13.87;10.47;;;;;;;;;;5085779;28;20051;-73
2023/07/23 09:34:49;;;;;;;15.00;10.30;;;;;;;;;;5087682;28;20511;-74
2023/07/23 09:37:17;;;;;;;17.02;11.35;;;;;;;;;;5084370;28;20125;-73
2023/07/23 09:39:43;;;;;;;14.95;11.10;;;;;;;;;;5070945;28;20040;-71
2023/07/23 09:42:11;;;;;;;17.00;11.38;;;;;;;;;;5085896;28;20446;-72
2023/07/23 09:44:41;;;;;;;17.30;10.80;;;;;;;;;;5083873;28;20076;-72
2023/07/23 09:47:07;;;;;;;15.57;10.52;;;;;;;;;;5078749;28;20404;-72
2023/07/23 09:49:33;;;;;;;15.18;10.45;;;;;;;;;;5079876;28;20541;-76
2023/07/23 09:52:03;;;;;;;14.95;10.48;;;;;;;;;;5074259;28;20020;-72
2023/07/23 09:54:29;;;;;;;14.68;10.27;;;;;;;;;;5091700;28;20423;-73
2023/07/23 09:56:56;;;;;;;17.10;10.50;;;;;;;;;;5078539;28;20027;-72
2023/07/23 09:59:22;;;;;;;14.85;11.32;;;;;;;;;;5082820;28;20034;-72
2023/07/23 10:01:49;;;;;;;13.20;10.07;;;;;;;;;;5091821;28;20513;-72
2023/07/23 10:04:16;;;;;;;15.77;10.48;;;;;;;;;;5091605;28;20557;-75
2023/07/23 10:06:43;;;;;;;19.70;11.07;;;;;;;;;;5077045;28;20159;-73
2023/07/23 10:09:10;;;;;;;13.35;9.65;;;;;;;;;;5083999;28;20024;-73
2023/07/23 10:11:36;;;;;;;17.25;10.15;;;;;;;;;;5079503;28;20055;-73
2023/07/23 10:14:02;;;;;;;16.15;10.43;;;;;;;;;;5097724;27;20024;-72
2023/07/23 10:16:30;;;;;;;17.40;11.13;;;;;;;;;;5082593;28;20024;-75
2023/07/23 10:18:57;;;;;;;15.20;9.38;;;;;;;;;;5086006;28;20047;-73
2023/07/23 10:21:23;;;;;;;13.15;9.82;;;;;;;;;;5084941;28;20074;-72
2023/07/23 10:23:55;;;;;;;18.35;10.07;;;;;;;;;;5088808;28;20023;-73
2023/07/23 10:26:31;;;;;;;14.32;9.90;;;;;;;;;;5086573;28;20453;-73
2023/07/23 10:28:59;;;;;;;15.10;10.25;;;;;;;;;;5096196;28;20081;-72
2023/07/23 10:31:26;;;;;;;15.70;9.77;;;;;;;;;;5082960;28;20024;-71
2023/07/23 10:33:52;;;;;;;14.70;9.68;;;;;;;;;;5091994;28;20027;-72
2023/07/23 10:36:19;;;;;;;15.32;9.25;;;;;;;;;;5085949;28;20050;-73
2023/07/23 10:38:46;;;;;;;14.68;10.25;;;;;;;;;;5094780;27;20044;-75
2023/07/23 10:41:13;;;;;;;13.27;8.90;;;;;;;;;;5076567;28;20031;-75
2023/07/23 10:43:39;;;;;;;17.08;9.55;;;;;;;;;;5094831;28;20120;-74
2023/07/23 10:46:07;;;;;;;13.65;8.90;;;;;;;;;;5096318;28;20036;-74
2023/07/23 10:48:49;;;;;;;20.15;9.43;;;;;;;;;;5090001;28;20035;-73
2023/07/23 10:51:20;;;;;;;11.73;8.60;;;;;;;;;;5086229;28;20023;-76
2023/07/23 10:53:54;;;;;;;14.20;9.38;;;;;;;;;;5101518;28;20055;-76
2023/07/23 10:56:32;;;;;;;15.05;9.65;;;;;;;;;;5073713;28;20544;-76
2023/07/23 10:59:02;;;;;;;12.07;9.40;;;;;;;;;;5074502;28;20039;-74
2023/07/23 11:01:28;;;;;;;18.05;9.13;;;;;;;;;;5089120;28;20085;-76
2023/07/23 11:03:56;;;;;;;15.10;9.23;;;;;;;;;;5099784;28;20031;-75
2023/07/23 11:06:31;;;;;;;12.70;9.27;;;;;;;;;;5091898;28;20099;-75
2023/07/23 11:08:59;;;;;;;13.68;9.60;;;;;;;;;;5089972;28;20037;-75
2023/07/23 11:11:29;;;;;;;16.67;8.70;;;;;;;;;;5086503;28;20024;-75
2023/07/23 11:13:55;;;;;;;13.05;9.10;;;;;;;;;;5082094;28;20124;-75
2023/07/23 11:16:21;;;;;;;15.88;9.52;;;;;;;;;;5084352;28;20511;-74
2023/07/23 11:18:47;;;;;;;11.95;8.50;;;;;;;;;;5097852;28;20209;-74
2023/07/23 11:21:14;;;;;;;12.82;8.85;;;;;;;;;;5098203;28;20036;-74
2023/07/23 11:23:40;;;;;;;12.25;9.55;;;;;;;;;;5088021;28;20044;-72
2023/07/23 11:26:06;;;;;;;11.93;9.18;;;;;;;;;;5094885;28;20102;-74
2023/07/23 11:28:35;;;;;;;10.57;8.95;;;;;;;;;;5085561;28;20163;-75
2023/07/23 11:31:01;;;;;;;13.80;8.82;;;;;;;;;;5079772;28;20040;-75
2023/07/23 11:33:33;;;;;;;12.77;8.77;;;;;;;;;;5084314;28;20355;-74
2023/07/23 11:36:02;;;;;;;15.53;9.27;;;;;;;;;;5086238;28;20032;-73
2023/07/23 11:38:28;;;;;;;16.77;9.93;;;;;;;;;;5087917;28;20052;-73
2023/07/23 11:40:57;;;;;;;18.00;9.18;;;;;;;;;;5090636;28;20124;-73
2023/07/23 11:43:23;;;;;;;12.77;8.88;;;;;;;;;;5090726;28;20030;-74
2023/07/23 11:45:51;;;;;;;14.88;9.18;;;;;;;;;;5086778;28;20032;-74
2023/07/23 11:48:20;;;;;;;14.82;8.93;;;;;;;;;;5084061;28;20028;-73
2023/07/23 11:50:47;;;;;;;12.07;8.40;;;;;;;;;;5087656;28;20024;-73
2023/07/23 11:53:14;;;;;;;12.57;7.55;;;;;;;;;;5089167;28;20381;-73
2023/07/23 11:55:40;;;;;;;12.68;7.45;;;;;;;;;;5086417;28;20139;-74
2023/07/23 11:58:06;;;;;;;9.85;7.05;;;;;;;;;;5087978;28;20127;-74
2023/07/23 12:00:39;;;;;;;12.73;7.90;;;;;;;;;;5087130;28;20177;-74
2023/07/23 12:03:08;;;;;;;12.98;7.35;;;;;;;;;;5090678;28;20024;-74
2023/07/23 12:05:38;;;;;;;10.07;6.95;;;;;;;;;;5088429;28;20044;-74
2023/07/23 12:08:05;;;;;;;10.25;7.03;;;;;;;;;;5090271;28;20463;-74
2023/07/23 12:10:32;;;;;;;8.27;6.20;;;;;;;;;;5089651;28;20044;-74
2023/07/23 12:12:59;;;;;;;12.18;6.40;;;;;;;;;;5088014;28;20024;-73
2023/07/23 12:15:25;;;;;;;8.57;6.50;;;;;;;;;;5089090;28;20035;-73
2023/07/23 12:17:52;;;;;;;8.43;5.72;;;;;;;;;;5087042;28;20058;-74
2023/07/23 12:20:18;;;;;;;7.68;5.70;;;;;;;;;;5079143;28;20085;-74
2023/07/23 12:22:54;;;;;;;11.27;5.93;;;;;;;;;;5086799;28;20108;-73
2023/07/23 12:25:20;;;;;;;7.93;5.68;;;;;;;;;;5079173;28;20059;-74
2023/07/23 12:27:46;;;;;;;8.52;5.85;;;;;;;;;;5091762;28;20040;-74
2023/07/23 12:30:12;;;;;;;10.93;6.60;;;;;;;;;;5085455;28;20033;-74
2023/07/23 12:32:38;;;;;;;7.18;6.43;;;;;;;;;;5090289;28;20051;-74
2023/07/23 12:35:05;;;;;;;6.35;5.75;;;;;;;;;;5079997;28;20468;-73
2023/07/23 12:37:32;;;;;;;7.10;5.97;;;;;;;;;;5093737;28;20078;-73
2023/07/23 12:39:58;;;;;;;7.65;6.63;;;;;;;;;;5082903;28;20119;-73
2023/07/23 12:42:24;;;;;;;7.47;6.78;;;;;;;;;;5088332;28;20493;-72
2023/07/23 12:44:50;;;;;;;7.40;6.70;;;;;;;;;;5087969;28;20078;-73
2023/07/23 12:47:16;;;;;;;8.15;7.40;;;;;;;;;;5087148;28;20435;-74
2023/07/23 12:49:42;;;;;;;10.38;8.35;;;;;;;;;;5090234;28;20040;-73
2023/07/23 12:52:09;;;;;;;10.13;9.13;;;;;;;;;;5093254;28;20081;-74
2023/07/23 12:54:35;;;;;;;9.52;8.63;;;;;;;;;;5092027;28;20032;-73
2023/07/23 12:57:01;;;;;;;9.98;9.07;;;;;;;;;;5079302;28;20040;-73
2023/07/23 12:59:28;;;;;;;10.52;9.50;;;;;;;;;;5088184;28;20028;-74
2023/07/23 13:01:54;;;;;;;10.88;9.77;;;;;;;;;;5091966;28;20063;-73
2023/07/23 13:04:20;;;;;;;13.20;10.82;;;;;;;;;;5091045;28;20036;-75
2023/07/23 13:06:47;;;;;;;12.98;11.68;;;;;;;;;;5082594;28;20481;-75
2023/07/23 13:09:13;;;;;;;12.57;11.25;;;;;;;;;;5085507;28;20036;-75
2023/07/23 13:11:39;;;;;;;12.88;11.57;;;;;;;;;;5088882;28;20025;-75
2023/07/23 13:14:05;;;;;;;13.60;12.20;;;;;;;;;;5085571;28;20025;-74
2023/07/23 13:16:31;;;;;;;13.82;12.43;;;;;;;;;;5085807;28;20043;-74
2023/07/23 13:18:57;;;;;;;13.55;12.15;;;;;;;;;;5087663;28;20489;-74
2023/07/23 13:21:23;;;;;;;12.40;11.20;;;;;;;;;;5079338;28;20048;-74
2023/07/23 13:23:49;;;;;;;13.25;11.52;;;;;;;;;;5091626;28;20036;-75
2023/07/23 13:26:15;;;;;;;11.70;10.43;;;;;;;;;;5091345;28;20031;-72
2023/07/23 13:28:42;;;;;;;15.13;9.98;;;;;;;;;;5083137;28;20040;-72
2023/07/23 13:31:08;;;;;;;13.98;9.88;;;;;;;;;;5085982;28;20039;-73
2023/07/23 13:33:34;;;;;;;13.77;8.15;;;;;;;;;;5074725;28;20511;-72
2023/07/23 13:36:00;;;;;;;8.65;6.75;;;;;;;;;;5090190;28;20032;-73
2023/07/23 13:38:26;;;;;;;8.45;6.50;;;;;;;;;;5090364;28;20028;-73
2023/07/23 13:40:52;;;;;;;8.10;5.85;;;;;;;;;;5082555;28;20028;-73
2023/07/23 13:43:18;;;;;;;9.05;6.13;;;;;;;;;;5092419;28;20032;-73
2023/07/23 13:45:44;;;;;;;8.40;5.05;;;;;;;;;;5086812;28;20028;-74
2023/07/23 13:48:10;;;;;;;7.28;4.53;;;;;;;;;;5084731;28;20032;-75
2023/07/23 13:50:36;;;;;;;11.38;5.05;;;;;;;;;;5088518;28;20033;-74
2023/07/23 13:53:04;;;;;;;9.65;5.13;;;;;;;;;;5084142;28;20024;-75
2023/07/23 13:55:30;;;;;;;6.90;4.28;;;;;;;;;;5085779;28;20111;-74
2023/07/23 13:57:56;;;;;;;8.30;4.75;;;;;;;;;;5090726;28;20036;-75
2023/07/23 14:00:22;;;;;;;7.68;5.28;;;;;;;;;;5089951;28;20039;-75
2023/07/23 14:02:48;;;;;;;9.15;4.88;;;;;;;;;;5084627;28;20481;-74
2023/07/23 14:05:14;;;;;;;7.85;4.03;;;;;;;;;;5090155;28;20032;-74
2023/07/23 14:07:40;;;;;;;6.95;3.67;;;;;;;;;;5091842;28;20447;-74
2023/07/23 14:10:07;;;;;;;6.45;3.78;;;;;;;;;;5088347;28;20036;-74
2023/07/23 14:12:33;;;;;;;6.70;4.25;;;;;;;;;;5086954;28;20555;-73
2023/07/23 14:15:02;;;;;;;7.82;3.05;;;;;;;;;;5071414;28;20409;-73
2023/07/23 14:17:28;;;;;;;8.93;3.63;;;;;;;;;;5084408;28;20088;-74
2023/07/23 14:19:54;;;;;;;7.35;3.35;;;;;;;;;;5087146;28;20102;-74
2023/07/23 14:22:20;;;;;;;10.63;4.38;;;;;;;;;;5077951;28;20043;-73
2023/07/23 14:24:46;;;;;;;12.15;3.72;;;;;;;;;;5088773;28;20029;-75
2023/07/23 14:27:12;;;;;;;10.32;3.33;;;;;;;;;;5090102;28;20047;-74